sensor_id;sensor_type;location;lat;lon;timestamp;pressure;altitude;pressure_sealevel;temperature;humidity
67738;BME280;54534;43.612;1.572;2023-01-29T00:00:30;100009.38;;;14.98;38.94
67738;BME280;54534;43.612;1.572;2023-01-29T00:02:56;100004.06;;;14.98;38.82
67738;BME280;54534;43.612;1.572;2023-01-29T00:05:22;100007.59;;;14.99;38.38
67738;BME280;54534;43.612;1.572;2023-01-29T00:07:47;100013.81;;;14.98;38.34
67738;BME280;54534;43.612;1.572;2023-01-29T00:10:12;100006.72;;;14.98;39.11
67738;BME280;54534;43.612;1.572;2023-01-29T00:12:38;100005.94;;;14.96;38.73
67738;BME280;54534;43.612;1.572;2023-01-29T00:15:04;100001.53;;;14.97;39.03
67738;BME280;54534;43.612;1.572;2023-01-29T00:17:30;100003.31;;;14.96;38.47
67738;BME280;54534;43.612;1.572;2023-01-29T00:19:55;100007.66;;;14.97;38.36
67738;BME280;54534;43.612;1.572;2023-01-29T00:22:21;99993.63;;;14.95;38.90
67738;BME280;54534;43.612;1.572;2023-01-29T00:24:46;99996.22;;;14.97;39.06
67738;BME280;54534;43.612;1.572;2023-01-29T00:27:11;99993.63;;;14.95;38.48
67738;BME280;54534;43.612;1.572;2023-01-29T00:29:37;99997.25;;;14.94;38.26
67738;BME280;54534;43.612;1.572;2023-01-29T00:32:02;99992.78;;;14.95;39.07
67738;BME280;54534;43.612;1.572;2023-01-29T00:34:27;99990.22;;;14.93;38.84
67738;BME280;54534;43.612;1.572;2023-01-29T00:36:53;99993.72;;;14.94;38.91
67738;BME280;54534;43.612;1.572;2023-01-29T00:39:30;99984.94;;;14.93;38.68
67738;BME280;54534;43.612;1.572;2023-01-29T00:42:04;99991.09;;;14.94;38.54
67738;BME280;54534;43.612;1.572;2023-01-29T00:44:48;99991.16;;;14.92;38.16
67738;BME280;54534;43.612;1.572;2023-01-29T00:47:22;99985.84;;;14.92;38.54
67738;BME280;54534;43.612;1.572;2023-01-29T00:50:10;99983.28;;;14.90;38.39
67738;BME280;54534;43.612;1.572;2023-01-29T00:52:35;99989.44;;;14.91;38.06
67738;BME280;54534;43.612;1.572;2023-01-29T00:55:02;99985.06;;;14.90;38.92
67738;BME280;54534;43.612;1.572;2023-01-29T00:57:29;99990.38;;;14.90;38.53
67738;BME280;54534;43.612;1.572;2023-01-29T00:59:55;99984.22;;;14.89;38.90
67738;BME280;54534;43.612;1.572;2023-01-29T01:02:21;99986.00;;;14.89;38.31
67738;BME280;54534;43.612;1.572;2023-01-29T01:05:06;99974.66;;;14.87;38.18
67738;BME280;54534;43.612;1.572;2023-01-29T01:07:34;99979.94;;;14.87;38.53
67738;BME280;54534;43.612;1.572;2023-01-29T01:09:59;99979.94;;;14.87;38.25
67738;BME280;54534;43.612;1.572;2023-01-29T01:12:43;99979.06;;;14.86;38.82
67738;BME280;54534;43.612;1.572;2023-01-29T01:15:09;99978.22;;;14.86;38.45
67738;BME280;54534;43.612;1.572;2023-01-29T01:17:34;99980.00;;;14.85;38.40
67738;BME280;54534;43.612;1.572;2023-01-29T01:20:00;99977.34;;;14.85;38.40
67738;BME280;54534;43.612;1.572;2023-01-29T01:22:26;99977.34;;;14.85;38.34
67738;BME280;54534;43.612;1.572;2023-01-29T01:24:51;99982.66;;;14.85;38.16
67738;BME280;54534;43.612;1.572;2023-01-29T01:27:16;99983.56;;;14.84;38.58
67738;BME280;54534;43.612;1.572;2023-01-29T01:29:44;99980.00;;;14.85;38.11
67738;BME280;54534;43.612;1.572;2023-01-29T01:32:10;99979.13;;;14.85;38.41
67738;BME280;54534;43.612;1.572;2023-01-29T01:34:36;99977.41;;;14.84;38.94
67738;BME280;54534;43.612;1.572;2023-01-29T01:37:01;99980.06;;;14.84;38.19
67738;BME280;54534;43.612;1.572;2023-01-29T01:39:27;99982.72;;;14.84;38.52
67738;BME280;54534;43.612;1.572;2023-01-29T01:41:53;99982.81;;;14.82;38.43
67738;BME280;54534;43.612;1.572;2023-01-29T01:44:53;99985.34;;;14.84;38.72
67738;BME280;54534;43.612;1.572;2023-01-29T01:47:41;99992.53;;;14.82;38.80
67738;BME280;54534;43.612;1.572;2023-01-29T01:50:44;99986.38;;;14.81;39.01
67738;BME280;54534;43.612;1.572;2023-01-29T01:53:14;99989.13;;;14.79;38.78
67738;BME280;54534;43.612;1.572;2023-01-29T01:55:48;99986.47;;;14.79;38.75
67738;BME280;54534;43.612;1.572;2023-01-29T01:58:22;99982.91;;;14.81;38.64
67738;BME280;54534;43.612;1.572;2023-01-29T02:00:49;99981.16;;;14.79;38.65
67738;BME280;54534;43.612;1.572;2023-01-29T02:03:14;99984.75;;;14.78;38.55
67738;BME280;54534;43.612;1.572;2023-01-29T02:06:00;99985.69;;;14.77;38.38
67738;BME280;54534;43.612;1.572;2023-01-29T02:08:57;99982.09;;;14.78;38.36
67738;BME280;54534;43.612;1.572;2023-01-29T02:11:43;99981.31;;;14.76;38.80
67738;BME280;54534;43.612;1.572;2023-01-29T02:14:09;99988.41;;;14.76;38.54
67738;BME280;54534;43.612;1.572;2023-01-29T02:16:35;99982.19;;;14.77;38.82
67738;BME280;54534;43.612;1.572;2023-01-29T02:19:03;99992.78;;;14.77;38.74
67738;BME280;54534;43.612;1.572;2023-01-29T02:30:04;99985.84;;;14.74;38.77
67738;BME280;54534;43.612;1.572;2023-01-29T02:32:52;99984.13;;;14.73;38.48
67738;BME280;54534;43.612;1.572;2023-01-29T02:35:28;99994.72;;;14.73;38.78
67738;BME280;54534;43.612;1.572;2023-01-29T02:40:37;99999.19;;;14.73;38.50
67738;BME280;54534;43.612;1.572;2023-01-29T02:45:49;100000.00;;;14.73;38.54
67738;BME280;54534;43.612;1.572;2023-01-29T02:48:20;100002.75;;;14.72;38.23
67738;BME280;54534;43.612;1.572;2023-01-29T02:50:54;100001.88;;;14.71;38.65
67738;BME280;54534;43.612;1.572;2023-01-29T02:56:00;100006.25;;;14.72;38.50
67738;BME280;54534;43.612;1.572;2023-01-29T02:58:46;100014.25;;;14.71;38.87
67738;BME280;54534;43.612;1.572;2023-01-29T03:01:24;100004.53;;;14.71;38.73
67738;BME280;54534;43.612;1.572;2023-01-29T03:03:58;100008.97;;;14.71;38.97
67738;BME280;54534;43.612;1.572;2023-01-29T03:06:34;100009.91;;;14.70;38.97
67738;BME280;54534;43.612;1.572;2023-01-29T03:11:54;100013.47;;;14.68;38.96
67738;BME280;54534;43.612;1.572;2023-01-29T03:14:32;100010.84;;;14.68;38.73
67738;BME280;54534;43.612;1.572;2023-01-29T03:17:20;100017.09;;;14.67;38.67
67738;BME280;54534;43.612;1.572;2023-01-29T03:19:48;100017.16;;;14.66;38.65
67738;BME280;54534;43.612;1.572;2023-01-29T03:22:16;100017.09;;;14.67;38.30
67738;BME280;54534;43.612;1.572;2023-01-29T03:24:46;100017.16;;;14.66;38.99
67738;BME280;54534;43.612;1.572;2023-01-29T03:27:42;100015.34;;;14.66;38.77
67738;BME280;54534;43.612;1.572;2023-01-29T03:30:29;100020.75;;;14.65;39.33
67738;BME280;54534;43.612;1.572;2023-01-29T03:33:17;100022.53;;;14.64;38.54
67738;BME280;54534;43.612;1.572;2023-01-29T03:35:50;100026.97;;;14.64;38.88
67738;BME280;54534;43.612;1.572;2023-01-29T03:38:17;100019.94;;;14.63;38.87
67738;BME280;54534;43.612;1.572;2023-01-29T03:40:57;100022.59;;;14.63;38.38
67738;BME280;54534;43.612;1.572;2023-01-29T03:43:46;100025.22;;;14.63;38.76
67738;BME280;54534;43.612;1.572;2023-01-29T03:48:56;100025.22;;;14.63;38.93
67738;BME280;54534;43.612;1.572;2023-01-29T03:51:54;100032.34;;;14.62;38.03
67738;BME280;54534;43.612;1.572;2023-01-29T03:54:24;100037.63;;;14.62;39.26
67738;BME280;54534;43.612;1.572;2023-01-29T03:57:11;100034.13;;;14.62;38.36
67738;BME280;54534;43.612;1.572;2023-01-29T04:02:24;100040.34;;;14.61;38.51
67738;BME280;54534;43.612;1.572;2023-01-29T04:05:11;100035.06;;;14.61;38.74
67738;BME280;54534;43.612;1.572;2023-01-29T04:07:40;100041.28;;;14.60;39.13
67738;BME280;54534;43.612;1.572;2023-01-29T04:10:16;100042.22;;;14.59;38.68
67738;BME280;54534;43.612;1.572;2023-01-29T04:12:45;100043.06;;;14.59;38.66
67738;BME280;54534;43.612;1.572;2023-01-29T04:15:13;100039.56;;;14.59;38.35
67738;BME280;54534;43.612;1.572;2023-01-29T04:17:42;100051.94;;;14.58;38.24
67738;BME280;54534;43.612;1.572;2023-01-29T04:20:10;100050.16;;;14.59;38.63
67738;BME280;54534;43.612;1.572;2023-01-29T04:22:38;100048.44;;;14.57;38.94
67738;BME280;54534;43.612;1.572;2023-01-29T04:25:07;100050.16;;;14.59;38.52
67738;BME280;54534;43.612;1.572;2023-01-29T04:41:45;100048.56;;;14.54;39.18
67738;BME280;54534;43.612;1.572;2023-01-29T04:44:22;100051.22;;;14.54;38.58
67738;BME280;54534;43.612;1.572;2023-01-29T04:59:52;100059.34;;;14.51;38.37
67738;BME280;54534;43.612;1.572;2023-01-29T05:02:23;100053.97;;;14.53;39.15
67738;BME280;54534;43.612;1.572;2023-01-29T05:04:49;100055.75;;;14.52;39.06
67738;BME280;54534;43.612;1.572;2023-01-29T05:07:16;100054.03;;;14.51;38.61
67738;BME280;54534;43.612;1.572;2023-01-29T05:09:45;100059.34;;;14.51;38.69
67738;BME280;54534;43.612;1.572;2023-01-29T05:12:13;100054.97;;;14.50;38.98
67738;BME280;54534;43.612;1.572;2023-01-29T05:14:42;100067.28;;;14.51;39.00
67738;BME280;54534;43.612;1.572;2023-01-29T05:17:13;100066.41;;;14.51;38.77
67738;BME280;54534;43.612;1.572;2023-01-29T05:19:40;100068.19;;;14.50;38.62
67738;BME280;54534;43.612;1.572;2023-01-29T05:22:08;100065.56;;;14.50;38.33
67738;BME280;54534;43.612;1.572;2023-01-29T05:24:35;100063.81;;;14.49;38.45
67738;BME280;54534;43.612;1.572;2023-01-29T05:27:01;100071.75;;;14.49;38.84
67738;BME280;54534;43.612;1.572;2023-01-29T05:29:46;100073.63;;;14.47;38.58
67738;BME280;54534;43.612;1.572;2023-01-29T05:32:12;100080.66;;;14.48;38.55
67738;BME280;54534;43.612;1.572;2023-01-29T05:34:38;100080.66;;;14.48;38.27
67738;BME280;54534;43.612;1.572;2023-01-29T05:37:03;100086.81;;;14.49;39.16
67738;BME280;54534;43.612;1.572;2023-01-29T05:39:29;100085.09;;;14.48;38.21
67738;BME280;54534;43.612;1.572;2023-01-29T05:41:54;100092.16;;;14.47;38.97
67738;BME280;54534;43.612;1.572;2023-01-29T05:44:19;100096.53;;;14.48;38.60
67738;BME280;54534;43.612;1.572;2023-01-29T05:46:45;100101.06;;;14.46;38.33
67738;BME280;54534;43.612;1.572;2023-01-29T05:49:11;100096.59;;;14.46;39.11
67738;BME280;54534;43.612;1.572;2023-01-29T05:51:36;100096.69;;;14.45;38.38
67738;BME280;54534;43.612;1.572;2023-01-29T05:54:01;100098.41;;;14.46;38.95
67738;BME280;54534;43.612;1.572;2023-01-29T05:56:27;100101.97;;;14.45;38.64
67738;BME280;54534;43.612;1.572;2023-01-29T05:58:52;100105.47;;;14.45;39.04
67738;BME280;54534;43.612;1.572;2023-01-29T06:01:20;100103.69;;;14.46;38.39
67738;BME280;54534;43.612;1.572;2023-01-29T06:03:46;100103.84;;;14.43;38.97
67738;BME280;54534;43.612;1.572;2023-01-29T06:06:12;100107.25;;;14.45;38.58
67738;BME280;54534;43.612;1.572;2023-01-29T06:08:38;100104.69;;;14.43;39.27
67738;BME280;54534;43.612;1.572;2023-01-29T06:11:07;100103.84;;;14.43;39.03
67738;BME280;54534;43.612;1.572;2023-01-29T06:13:32;100110.03;;;14.42;39.00
67738;BME280;54534;43.612;1.572;2023-01-29T06:15:58;100099.47;;;14.42;38.46
67738;BME280;54534;43.612;1.572;2023-01-29T06:18:23;100097.69;;;14.42;38.58
67738;BME280;54534;43.612;1.572;2023-01-29T06:20:49;100107.41;;;14.42;38.74
67738;BME280;54534;43.612;1.572;2023-01-29T06:23:14;100118.00;;;14.42;38.35
67738;BME280;54534;43.612;1.572;2023-01-29T06:25:39;100116.19;;;14.42;38.74
67738;BME280;54534;43.612;1.572;2023-01-29T06:28:05;100105.72;;;14.41;38.69
67738;BME280;54534;43.612;1.572;2023-01-29T06:30:30;100103.97;;;14.40;38.53
67738;BME280;54534;43.612;1.572;2023-01-29T06:32:57;100108.34;;;14.41;38.74
67738;BME280;54534;43.612;1.572;2023-01-29T06:35:23;100109.28;;;14.40;38.58
67738;BME280;54534;43.612;1.572;2023-01-29T06:37:49;100107.53;;;14.39;38.67
67738;BME280;54534;43.612;1.572;2023-01-29T06:40:14;100108.50;;;14.38;38.58
67738;BME280;54534;43.612;1.572;2023-01-29T06:42:40;100112.84;;;14.39;38.42
67738;BME280;54534;43.612;1.572;2023-01-29T06:45:06;100120.00;;;14.37;39.34
67738;BME280;54534;43.612;1.572;2023-01-29T06:47:31;100124.38;;;14.38;38.40
67738;BME280;54534;43.612;1.572;2023-01-29T06:49:56;100125.28;;;14.37;38.77
67738;BME280;54534;43.612;1.572;2023-01-29T06:52:22;100134.94;;;14.38;38.46
67738;BME280;54534;43.612;1.572;2023-01-29T06:54:49;100123.59;;;14.36;38.79
67738;BME280;54534;43.612;1.572;2023-01-29T06:57:14;100127.16;;;14.34;38.46
67738;BME280;54534;43.612;1.572;2023-01-29T06:59:40;100127.94;;;14.37;38.88
67738;BME280;54534;43.612;1.572;2023-01-29T07:02:05;100135.09;;;14.34;38.62
67738;BME280;54534;43.612;1.572;2023-01-29T07:04:31;100137.75;;;14.34;38.32
67738;BME280;54534;43.612;1.572;2023-01-29T07:06:58;100136.00;;;14.33;38.47
67738;BME280;54534;43.612;1.572;2023-01-29T07:09:23;100142.16;;;14.34;38.87
67738;BME280;54534;43.612;1.572;2023-01-29T07:11:49;100141.31;;;14.33;38.61
67738;BME280;54534;43.612;1.572;2023-01-29T07:14:14;100147.47;;;14.34;38.61
67738;BME280;54534;43.612;1.572;2023-01-29T07:16:40;100146.59;;;14.33;38.14
67738;BME280;54534;43.612;1.572;2023-01-29T07:19:05;100164.28;;;14.33;38.31
67738;BME280;54534;43.612;1.572;2023-01-29T07:21:30;100165.19;;;14.32;38.49
67738;BME280;54534;43.612;1.572;2023-01-29T07:23:56;100170.50;;;14.32;38.66
67738;BME280;54534;43.612;1.572;2023-01-29T07:26:21;100163.47;;;14.31;38.67
67738;BME280;54534;43.612;1.572;2023-01-29T07:28:47;100166.13;;;14.31;38.20
67738;BME280;54534;43.612;1.572;2023-01-29T07:31:13;100169.63;;;14.31;38.25
67738;BME280;54534;43.612;1.572;2023-01-29T07:33:39;100177.56;;;14.31;38.70
67738;BME280;54534;43.612;1.572;2023-01-29T07:36:07;100178.50;;;14.30;38.56
67738;BME280;54534;43.612;1.572;2023-01-29T07:38:33;100192.66;;;14.29;39.18
67738;BME280;54534;43.612;1.572;2023-01-29T07:40:58;100193.53;;;14.30;39.10
67738;BME280;54534;43.612;1.572;2023-01-29T07:43:24;100189.09;;;14.30;39.37
67738;BME280;54534;43.612;1.572;2023-01-29T07:45:49;100197.03;;;14.30;38.73
67738;BME280;54534;43.612;1.572;2023-01-29T07:48:15;100191.78;;;14.29;38.69
67738;BME280;54534;43.612;1.572;2023-01-29T07:50:40;100193.56;;;14.28;38.60
67738;BME280;54534;43.612;1.572;2023-01-29T07:53:06;100199.72;;;14.29;38.42
67738;BME280;54534;43.612;1.572;2023-01-29T07:55:32;100204.09;;;14.30;39.15
67738;BME280;54534;43.612;1.572;2023-01-29T07:57:59;100212.09;;;14.28;38.48
67738;BME280;54534;43.612;1.572;2023-01-29T08:00:25;100221.84;;;14.28;38.92
67738;BME280;54534;43.612;1.572;2023-01-29T08:02:51;100218.25;;;14.29;38.87
67738;BME280;54534;43.612;1.572;2023-01-29T08:05:17;100216.53;;;14.28;38.63
67738;BME280;54534;43.612;1.572;2023-01-29T08:07:42;100226.25;;;14.27;38.91
67738;BME280;54534;43.612;1.572;2023-01-29T08:10:08;100228.03;;;14.27;38.58
67738;BME280;54534;43.612;1.572;2023-01-29T08:12:33;100236.91;;;14.26;38.91
67738;BME280;54534;43.612;1.572;2023-01-29T08:14:59;100235.97;;;14.27;38.19
67738;BME280;54534;43.612;1.572;2023-01-29T08:17:24;100228.03;;;14.27;38.52
67738;BME280;54534;43.612;1.572;2023-01-29T08:19:50;100229.81;;;14.26;38.97
67738;BME280;54534;43.612;1.572;2023-01-29T08:22:15;100223.66;;;14.26;38.45
67738;BME280;54534;43.612;1.572;2023-01-29T08:24:41;100223.66;;;14.26;38.58
67738;BME280;54534;43.612;1.572;2023-01-29T08:27:07;100222.84;;;14.25;38.82
67738;BME280;54534;43.612;1.572;2023-01-29T08:29:33;100230.78;;;14.25;39.14
67738;BME280;54534;43.612;1.572;2023-01-29T08:31:58;100229.91;;;14.25;38.90
67738;BME280;54534;43.612;1.572;2023-01-29T08:34:25;100224.66;;;14.23;38.44
67738;BME280;54534;43.612;1.572;2023-01-29T08:36:50;100229.97;;;14.23;38.93
67738;BME280;54534;43.612;1.572;2023-01-29T08:39:17;100231.69;;;14.24;38.75
67738;BME280;54534;43.612;1.572;2023-01-29T08:41:42;100230.91;;;14.22;38.83
67738;BME280;54534;43.612;1.572;2023-01-29T08:44:08;100250.28;;;14.22;39.04
67738;BME280;54534;43.612;1.572;2023-01-29T08:46:34;100245.91;;;14.21;38.76
67738;BME280;54534;43.612;1.572;2023-01-29T08:48:59;100252.06;;;14.22;38.07
67738;BME280;54534;43.612;1.572;2023-01-29T08:51:25;100253.06;;;14.19;38.50
67738;BME280;54534;43.612;1.572;2023-01-29T08:53:51;100251.28;;;14.20;38.57
67738;BME280;54534;43.612;1.572;2023-01-29T08:56:17;100243.34;;;14.20;38.62
67738;BME280;54534;43.612;1.572;2023-01-29T08:58:42;100251.28;;;14.20;38.58
67738;BME280;54534;43.612;1.572;2023-01-29T09:01:10;100251.34;;;14.18;38.99
67738;BME280;54534;43.612;1.572;2023-01-29T09:03:35;100247.81;;;14.18;38.35
67738;BME280;54534;43.612;1.572;2023-01-29T09:06:01;100245.19;;;14.18;38.55
67738;BME280;54534;43.612;1.572;2023-01-29T09:08:27;100254.06;;;14.17;38.68
67738;BME280;54534;43.612;1.572;2023-01-29T09:10:53;100254.06;;;14.17;38.50
67738;BME280;54534;43.612;1.572;2023-01-29T09:13:18;100257.63;;;14.16;38.28
67738;BME280;54534;43.612;1.572;2023-01-29T09:15:43;100254.97;;;14.16;39.09
67738;BME280;54534;43.612;1.572;2023-01-29T09:18:09;100262.03;;;14.15;38.95
67738;BME280;54534;43.612;1.572;2023-01-29T09:20:34;100255.91;;;14.15;38.89
67738;BME280;54534;43.612;1.572;2023-01-29T09:23:04;100255.91;;;14.15;38.85
67738;BME280;54534;43.612;1.572;2023-01-29T09:25:29;100255.91;;;14.15;39.15
67738;BME280;54534;43.612;1.572;2023-01-29T09:27:55;100257.69;;;14.14;39.00
67738;BME280;54534;43.612;1.572;2023-01-29T09:30:20;100257.69;;;14.14;38.93
67738;BME280;54534;43.612;1.572;2023-01-29T09:32:45;100262.13;;;14.14;38.53
67738;BME280;54534;43.612;1.572;2023-01-29T09:35:11;100259.53;;;14.12;38.87
67738;BME280;54534;43.612;1.572;2023-01-29T09:37:37;100259.53;;;14.12;38.79
67738;BME280;54534;43.612;1.572;2023-01-29T09:40:03;100265.69;;;14.12;38.95
67738;BME280;54534;43.612;1.572;2023-01-29T09:42:37;100265.69;;;14.12;39.15
67738;BME280;54534;43.612;1.572;2023-01-29T09:45:12;100258.69;;;14.11;39.03
67738;BME280;54534;43.612;1.572;2023-01-29T09:47:39;100265.69;;;14.12;38.70
67738;BME280;54534;43.612;1.572;2023-01-29T09:50:08;100268.41;;;14.11;38.86
67738;BME280;54534;43.612;1.572;2023-01-29T09:52:41;100265.69;;;14.12;38.32
67738;BME280;54534;43.612;1.572;2023-01-29T09:55:22;100270.97;;;14.12;38.36
67738;BME280;54534;43.612;1.572;2023-01-29T09:57:56;100265.78;;;14.11;39.14
67738;BME280;54534;43.612;1.572;2023-01-29T10:00:28;100269.28;;;14.11;38.66
67738;BME280;54534;43.612;1.572;2023-01-29T10:13:38;100281.63;;;14.11;38.75
67738;BME280;54534;43.612;1.572;2023-01-29T10:26:56;100291.47;;;14.07;38.46
67738;BME280;54534;43.612;1.572;2023-01-29T10:29:23;100286.19;;;14.07;38.69
67738;BME280;54534;43.612;1.572;2023-01-29T10:31:56;100287.91;;;14.08;39.04
67738;BME280;54534;43.612;1.572;2023-01-29T10:34:48;100287.97;;;14.07;38.24
67738;BME280;54534;43.612;1.572;2023-01-29T10:37:19;100278.25;;;14.07;38.38
67738;BME280;54534;43.612;1.572;2023-01-29T10:39:48;100282.69;;;14.07;39.14
67738;BME280;54534;43.612;1.572;2023-01-29T10:47:28;100269.47;;;14.07;38.74
67738;BME280;54534;43.612;1.572;2023-01-29T11:00:25;100277.47;;;14.05;38.71
67738;BME280;54534;43.612;1.572;2023-01-29T11:02:52;100278.34;;;14.06;38.81
67738;BME280;54534;43.612;1.572;2023-01-29T11:05:24;100279.19;;;14.06;38.83
67738;BME280;54534;43.612;1.572;2023-01-29T11:08:06;100272.19;;;14.05;38.82
67738;BME280;54534;43.612;1.572;2023-01-29T11:11:12;100266.91;;;14.05;38.50
67738;BME280;54534;43.612;1.572;2023-01-29T11:13:32;100270.44;;;14.04;38.91
67738;BME280;54534;43.612;1.572;2023-01-29T11:15:58;100262.59;;;14.03;38.44
67738;BME280;54534;43.612;1.572;2023-01-29T11:18:24;100259.88;;;14.04;38.51
67738;BME280;54534;43.612;1.572;2023-01-29T11:21:00;100256.41;;;14.04;38.79
67738;BME280;54534;43.612;1.572;2023-01-29T11:23:29;100254.59;;;14.04;39.18
67738;BME280;54534;43.612;1.572;2023-01-29T11:25:56;100251.09;;;14.04;39.30
67738;BME280;54534;43.612;1.572;2023-01-29T11:28:42;100243.19;;;14.04;38.66
67738;BME280;54534;43.612;1.572;2023-01-29T11:31:46;100237.03;;;14.03;39.28
67738;BME280;54534;43.612;1.572;2023-01-29T11:34:18;100240.53;;;14.04;39.00
67738;BME280;54534;43.612;1.572;2023-01-29T11:36:44;100237.88;;;14.04;39.10
67738;BME280;54534;43.612;1.572;2023-01-29T11:39:17;100224.66;;;14.04;38.73
67738;BME280;54534;43.612;1.572;2023-01-29T11:41:52;100225.56;;;14.03;38.87
67738;BME280;54534;43.612;1.572;2023-01-29T11:44:20;100222.06;;;14.02;38.80
67738;BME280;54534;43.612;1.572;2023-01-29T11:46:46;100217.56;;;14.04;38.59
67738;BME280;54534;43.612;1.572;2023-01-29T11:49:22;100222.06;;;14.02;39.32
67738;BME280;54534;43.612;1.572;2023-01-29T11:51:54;100222.94;;;14.03;38.93
67738;BME280;54534;43.612;1.572;2023-01-29T11:54:28;100218.50;;;14.03;38.58
67738;BME280;54534;43.612;1.572;2023-01-29T11:56:55;100213.34;;;14.00;38.74
67738;BME280;54534;43.612;1.572;2023-01-29T11:59:42;100211.50;;;14.02;39.16
67738;BME280;54534;43.612;1.572;2023-01-29T12:02:30;100205.34;;;14.01;38.84
67738;BME280;54534;43.612;1.572;2023-01-29T12:05:00;100207.16;;;14.01;38.82
67738;BME280;54534;43.612;1.572;2023-01-29T12:07:26;100203.69;;;13.99;38.50
67738;BME280;54534;43.612;1.572;2023-01-29T12:09:55;100206.34;;;13.99;38.50
67738;BME280;54534;43.612;1.572;2023-01-29T12:12:32;100208.06;;;14.00;38.53
67738;BME280;54534;43.612;1.572;2023-01-29T12:15:18;100202.78;;;14.00;38.89
67738;BME280;54534;43.612;1.572;2023-01-29T12:17:52;100202.78;;;14.00;38.68
67738;BME280;54534;43.612;1.572;2023-01-29T12:20:26;100199.22;;;14.01;38.78
67738;BME280;54534;43.612;1.572;2023-01-29T12:22:58;100201.03;;;13.99;38.72
67738;BME280;54534;43.612;1.572;2023-01-29T12:25:49;100195.72;;;14.00;39.26
67738;BME280;54534;43.612;1.572;2023-01-29T12:28:33;100192.19;;;14.00;39.06
67738;BME280;54534;43.612;1.572;2023-01-29T12:33:40;100186.91;;;14.00;39.05
67738;BME280;54534;43.612;1.572;2023-01-29T12:36:39;100185.19;;;13.99;38.48
67738;BME280;54534;43.612;1.572;2023-01-29T12:39:10;100189.56;;;14.00;38.43
67738;BME280;54534;43.612;1.572;2023-01-29T12:42:12;100176.41;;;13.98;39.24
67738;BME280;54534;43.612;1.572;2023-01-29T12:45:00;100172.91;;;13.98;38.65
67738;BME280;54534;43.612;1.572;2023-01-29T12:47:37;100175.47;;;13.99;38.65
67738;BME280;54534;43.612;1.572;2023-01-29T12:50:29;100177.25;;;13.99;38.51
67738;BME280;54534;43.612;1.572;2023-01-29T12:53:24;100164.97;;;13.98;38.98
67738;BME280;54534;43.612;1.572;2023-01-29T12:55:51;100170.25;;;13.98;39.37
67738;BME280;54534;43.612;1.572;2023-01-29T12:58:24;100170.25;;;13.98;38.79
67738;BME280;54534;43.612;1.572;2023-01-29T13:00:55;100171.13;;;13.98;38.93
67738;BME280;54534;43.612;1.572;2023-01-29T13:03:52;100169.31;;;13.99;39.34
67738;BME280;54534;43.612;1.572;2023-01-29T13:06:40;100175.69;;;13.95;38.79
67738;BME280;54534;43.612;1.572;2023-01-29T13:09:27;100173.81;;;13.97;39.15
67738;BME280;54534;43.612;1.572;2023-01-29T13:12:03;100180.88;;;13.96;38.50
67738;BME280;54534;43.612;1.572;2023-01-29T13:14:53;100173.81;;;13.97;38.99
67738;BME280;54534;43.612;1.572;2023-01-29T13:17:25;100177.41;;;13.96;39.25
67738;BME280;54534;43.612;1.572;2023-01-29T13:19:55;100169.47;;;13.96;39.09
67738;BME280;54534;43.612;1.572;2023-01-29T13:22:23;100177.47;;;13.94;38.59
67738;BME280;54534;43.612;1.572;2023-01-29T13:24:50;100178.31;;;13.95;38.67
67738;BME280;54534;43.612;1.572;2023-01-29T13:27:21;100174.78;;;13.96;39.23
67738;BME280;54534;43.612;1.572;2023-01-29T13:29:48;100171.31;;;13.94;38.74
67738;BME280;54534;43.612;1.572;2023-01-29T13:32:19;100168.63;;;13.95;38.72
67738;BME280;54534;43.612;1.572;2023-01-29T13:34:47;100169.53;;;13.94;38.79
67738;BME280;54534;43.612;1.572;2023-01-29T13:37:39;100180.06;;;13.96;39.02
67738;BME280;54534;43.612;1.572;2023-01-29T13:40:17;100170.41;;;13.95;39.08
67738;BME280;54534;43.612;1.572;2023-01-29T13:42:47;100167.75;;;13.95;38.78
67738;BME280;54534;43.612;1.572;2023-01-29T13:45:20;100168.63;;;13.95;38.62
67738;BME280;54534;43.612;1.572;2023-01-29T13:47:47;100166.88;;;13.94;39.33
67738;BME280;54534;43.612;1.572;2023-01-29T13:50:18;100167.75;;;13.95;38.46
67738;BME280;54534;43.612;1.572;2023-01-29T13:55:37;100166.03;;;13.94;39.14
67738;BME280;54534;43.612;1.572;2023-01-29T14:00:56;100165.19;;;13.93;39.41
67738;BME280;54534;43.612;1.572;2023-01-29T14:13:45;100176.59;;;13.94;39.37
67738;BME280;54534;43.612;1.572;2023-01-29T14:18:44;100173.97;;;13.94;38.82
67738;BME280;54534;43.612;1.572;2023-01-29T14:21:22;100174.91;;;13.93;39.12
67738;BME280;54534;43.612;1.572;2023-01-29T14:23:53;100168.75;;;13.92;39.15
67738;BME280;54534;43.612;1.572;2023-01-29T14:26:26;100168.75;;;13.92;39.29
67738;BME280;54534;43.612;1.572;2023-01-29T14:28:57;100166.97;;;13.93;39.04
67738;BME280;54534;43.612;1.572;2023-01-29T14:32:24;100174.91;;;13.93;39.03
67738;BME280;54534;43.612;1.572;2023-01-29T14:34:35;100169.63;;;13.93;38.75
67738;BME280;54534;43.612;1.572;2023-01-29T14:37:29;100174.03;;;13.92;38.71
67738;BME280;54534;43.612;1.572;2023-01-29T14:39:58;100174.03;;;13.92;39.05
67738;BME280;54534;43.612;1.572;2023-01-29T14:45:34;100169.63;;;13.93;39.06
67738;BME280;54534;43.612;1.572;2023-01-29T14:50:39;100175.75;;;13.93;38.81
67738;BME280;54534;43.612;1.572;2023-01-29T14:58:48;100170.53;;;13.92;38.90
67738;BME280;54534;43.612;1.572;2023-01-29T15:01:22;100173.19;;;13.92;39.26
67738;BME280;54534;43.612;1.572;2023-01-29T15:03:59;100173.19;;;13.92;39.57
67738;BME280;54534;43.612;1.572;2023-01-29T15:09:17;100177.59;;;13.91;39.67
67738;BME280;54534;43.612;1.572;2023-01-29T15:11:54;100176.75;;;13.90;38.66
67738;BME280;54534;43.612;1.572;2023-01-29T15:14:37;100180.19;;;13.93;39.34
67738;BME280;54534;43.612;1.572;2023-01-29T15:19:42;100182.88;;;13.91;38.66